Accueil
METAR-TAF:

METAR-TAF

Aéroports :

Shanghai-Pudong, Chine

Aéroport international de Shanghai-Pudong

latitude: 31-07N, longitude: 121-46E, altitude: 4 m

Observation

Le bulletin a été fait il y a 27 minutes, à 17:30 UTC
Vent 8 kt de nord/nord-est
Température 11°C
Humidité 71%
Pression 1027 hPa
Visibilité 10 km ou plus
pas de nuages en-dessous de 1500 mètres et pas de cumulonimbus.

METAR: ZSPD 191730Z 02004MPS CAVOK 11/06 Q1027 NOSIG

Heure: 01:57 (17:57 UTC)

Prévision

Le bulletin a été fait il y a 2 heures et 43 minutes, à 15:14 UTC
Prévision valable du 19 à 18 UTC au 20 à 18 UTC
Vent 8 kt de nord
Visibilité: 6000 m
Nuages épars à une hauteur de 2000 ft

TAF: ZSPD 191514Z 1918/2018 01004MPS 6000 SCT020 TX13/2006Z TN07/1921Z

Observations et prévisions météorologiques de plus de 4000 aéroports (messages METAR et TAF).

Les stations disponibles sont représentées par des disques jaunes et rouges sur la carte.

Passer la souris dessus pour voir le nom de la station.

Cliquer dessus pour voir les observations et prévisions météorologiques.

Pour changer de carte: cliquez sur les boutons verts avec une croix noire pour zoomer, sur le bouton vert avec un tiret pour effectuer un zoom arrière, ou sur les flèches vertes pour les cartes adjacentes.


METAR-TAF: